Time;durP1;ratioP1;P1;durP2;ratioP2;P2;SDS_P1;SDS_P2;PMS_P1;PMS_P2;Temp;Humidity;BMP_temperature;BMP_pressure;BME280_temperature;BME280_humidity;BME280_pressure;Samples;Min_cycle;Max_cycle;Signal;HPM_P1;HPM_P2
2022/12/25 00:02:01;;;;;;;8.07;3.80;;;;;;;15.97;82.50;101103.75;20395926;29;20048;-84
2022/12/25 00:12:02;;;;;;;10.00;4.38;;;;;;;15.96;82.50;101096.66;20377752;29;20056;-83
2022/12/25 00:22:04;;;;;;;7.60;3.72;;;;;;;15.96;82.35;101064.44;20380060;29;20051;-83
2022/12/25 00:32:05;;;;;;;7.82;3.70;;;;;;;15.97;82.36;101060.78;20394205;29;20588;-84
2022/12/25 00:42:18;;;;;;;5.78;3.25;;;;;;;15.97;82.38;101049.16;20375482;29;20060;-84
2022/12/25 00:52:19;;;;;;;8.43;4.07;;;;;;;15.96;82.15;101053.69;20298152;29;20056;-84
2022/12/25 01:02:24;;;;;;;5.55;3.00;;;;;;;15.95;82.19;101057.38;20313086;29;20055;-84
2022/12/25 01:12:26;;;;;;;7.23;3.80;;;;;;;15.95;82.08;101052.84;20311109;29;20449;-84
2022/12/25 01:22:27;;;;;;;7.15;2.80;;;;;;;15.94;82.00;101061.88;20324283;29;20295;-84
2022/12/25 01:32:29;;;;;;;5.03;2.80;;;;;;;15.76;81.93;101034.59;20352902;29;20059;-84
2022/12/25 01:42:30;;;;;;;4.55;2.85;;;;;;;15.64;81.90;101048.97;20343614;29;20139;-83
2022/12/25 01:52:33;;;;;;;5.38;2.95;;;;;;;15.95;81.69;101094.94;20328028;29;20071;-84
2022/12/25 02:02:35;;;;;;;6.10;2.70;;;;;;;15.94;81.61;101090.56;20340849;29;20043;-83
2022/12/25 02:12:37;;;;;;;5.43;2.97;;;;;;;15.75;81.54;101056.19;20395030;29;20062;-84
2022/12/25 02:23:10;;;;;;;4.60;2.33;;;;;;;15.94;81.60;101077.13;20324756;29;20133;-83
2022/12/25 03:36:06;;;;;;;3.65;2.40;;;;;;;15.92;81.01;101036.13;20379529;29;20063;-84
2022/12/25 04:37:55;;;;;;;3.17;2.20;;;;;;;15.91;80.80;100996.81;20374795;29;20059;-84
2022/12/25 04:47:59;;;;;;;3.40;1.98;;;;;;;15.91;80.50;100999.50;20334372;28;20056;-84
2022/12/25 04:58:01;;;;;;;3.77;2.10;;;;;;;15.91;80.57;101005.72;20338011;28;20059;-84
2022/12/25 05:08:04;;;;;;;2.70;1.80;;;;;;;15.90;80.52;101003.13;20365280;28;20055;-83
2022/12/25 05:18:06;;;;;;;2.63;1.67;;;;;;;15.43;80.49;100942.28;20311985;29;20056;-83
2022/12/25 05:28:07;;;;;;;3.40;1.77;;;;;;;15.90;80.42;101027.31;20337113;29;20425;-84
2022/12/25 05:38:09;;;;;;;4.25;1.80;;;;;;;15.57;80.34;100967.22;20326040;29;20055;-84
2022/12/25 05:48:10;;;;;;;3.28;2.03;;;;;;;15.90;80.28;101024.63;20316547;29;20614;-83
2022/12/25 05:58:12;;;;;;;3.38;1.67;;;;;;;15.91;80.12;101012.94;20339025;29;20087;-83
2022/12/25 06:08:14;;;;;;;3.67;1.70;;;;;;;15.89;80.27;100982.63;20321597;29;20051;-84
2022/12/25 06:18:15;;;;;;;2.25;1.60;;;;;;;15.90;80.24;100973.59;20349440;28;20063;-83
2022/12/25 06:28:17;;;;;;;3.60;1.92;;;;;;;15.90;80.18;100976.28;20321256;29;20509;-84
2022/12/25 06:38:18;;;;;;;2.30;1.55;;;;;;;15.91;80.10;100964.59;20316469;29;20048;-84
2022/12/25 06:48:20;;;;;;;1.88;1.25;;;;;;;15.89;80.15;100956.66;20306742;29;20695;-84
2022/12/25 06:58:21;;;;;;;2.20;1.52;;;;;;;15.90;80.15;100936.03;20351582;29;20047;-84
2022/12/25 07:08:23;;;;;;;2.28;1.55;;;;;;;15.90;80.20;100925.28;20337778;29;20493;-84
2022/12/25 07:18:25;;;;;;;2.80;1.52;;;;;;;15.90;80.09;100925.28;20311851;28;20047;-83
2022/12/25 07:28:27;;;;;;;2.45;1.70;;;;;;;15.90;80.00;100926.16;20334660;28;20064;-84
2022/12/25 07:38:29;;;;;;;2.42;1.23;;;;;;;15.90;80.01;100938.69;20295632;28;20055;-83
2022/12/25 07:48:31;;;;;;;2.42;1.48;;;;;;;15.79;80.04;100939.53;20342559;28;20076;-86
2022/12/25 07:58:33;;;;;;;2.28;1.25;;;;;;;15.90;79.85;100958.38;20308318;29;20056;-86
2022/12/25 08:08:35;;;;;;;2.00;1.40;;;;;;;15.90;79.63;100974.47;20350813;28;20504;-85
2022/12/25 08:18:38;;;;;;;2.35;1.35;;;;;;;15.91;79.83;100959.22;20338480;28;20056;-86
2022/12/25 08:28:39;;;;;;;1.85;1.42;;;;;;;15.90;79.86;100971.78;20293443;28;20395;-95
2022/12/25 08:38:41;;;;;;;2.13;1.40;;;;;;;15.96;79.52;100970.47;20353712;28;20103;-84
2022/12/25 08:48:44;;;;;;;1.75;1.10;;;;;;;16.03;78.68;100977.06;20320434;29;20111;-89
2022/12/25 08:58:46;;;;;;;2.08;1.20;;;;;;;16.05;78.56;100977.78;20277688;29;20052;-95
2022/12/25 09:08:47;;;;;;;2.85;1.35;;;;;;;16.09;78.92;100981.94;20279241;29;20063;-91
2022/12/25 09:18:50;;;;;;;2.78;1.63;;;;;;;15.88;78.82;100929.91;20295081;29;20202;-86
2022/12/25 09:28:52;;;;;;;2.65;1.90;;;;;;;16.07;78.76;100946.28;20309365;29;20412;-84
2022/12/25 09:38:53;;;;;;;5.93;3.90;;;;;;;16.07;78.57;100956.16;20320228;29;20422;-84
2022/12/25 09:49:21;;;;;;;19.10;13.27;;;;;;;16.05;78.13;100964.34;20366737;29;20064;-93
2022/12/25 09:59:25;;;;;;;46.25;30.63;;;;;;;16.00;78.17;100958.50;20317353;29;20163;-89
2022/12/25 10:09:59;;;;;;;65.80;43.75;;;;;;;16.04;77.91;100934.91;20332582;29;20056;-91
2022/12/25 10:20:09;;;;;;;92.38;57.67;;;;;;;16.03;77.87;100930.53;20311775;28;20048;-90
2022/12/25 10:30:20;;;;;;;113.25;70.20;;;;;;;16.04;77.90;100940.28;20338682;28;20051;-94
2022/12/25 10:40:21;;;;;;;114.25;76.53;;;;;;;16.04;77.81;100959.09;20391022;29;20070;-94
2022/12/25 10:50:24;;;;;;;134.25;81.72;;;;;;;15.73;77.71;100881.00;20376518;29;20052;-95
2022/12/25 11:00:29;;;;;;;137.70;86.32;;;;;;;16.03;77.31;100917.97;20323921;28;20056;-91
2022/12/25 11:10:34;;;;;;;131.77;82.97;;;;;;;16.04;77.53;100889.28;20326646;28;20571;-90
2022/12/25 11:20:35;;;;;;;;;;;;;;;16.03;77.41;100842.78;20325857;29;20159;-88
2022/12/25 11:30:39;;;;;;;123.32;79.40;;;;;;;16.03;77.50;100832.03;20341917;29;20389;-86
2022/12/25 11:40:45;;;;;;;123.63;78.88;;;;;;;16.02;77.61;100833.03;20351411;29;20059;-86
2022/12/25 11:51:00;;;;;;;118.95;74.97;;;;;;;16.03;77.71;100801.63;20334319;28;20128;-88
2022/12/25 12:01:06;;;;;;;109.45;69.65;;;;;;;15.28;77.57;100681.50;20328867;29;20135;-89
2022/12/25 12:11:18;;;;;;;103.70;64.07;;;;;;;16.03;77.79;100799.81;20320931;29;20107;-88
2022/12/25 12:21:20;;;;;;;92.55;59.35;;;;;;;16.03;77.73;100778.34;20313912;28;20062;-89
2022/12/25 12:31:24;;;;;;;90.47;56.67;;;;;;;15.94;77.63;100736.16;20271078;29;20055;-87
2022/12/25 12:41:41;;;;;;;82.18;51.95;;;;;;;15.93;77.73;100729.91;20303036;28;20043;-87
2022/12/25 12:51:42;;;;;;;76.78;47.17;;;;;;;16.02;77.45;100712.19;20314056;28;20417;-86
2022/12/25 13:02:00;;;;;;;68.35;42.67;;;;;;;15.92;77.36;100708.56;20316551;28;20416;-85
2022/12/25 13:12:07;;;;;;;60.35;36.58;;;;;;;16.02;77.25;100714.88;20293881;28;20528;-84
2022/12/25 13:22:21;;;;;;;52.25;33.25;;;;;;;16.00;77.15;100711.47;20333297;28;20064;-84
2022/12/25 13:32:27;;;;;;;42.67;28.23;;;;;;;15.83;76.83;100674.38;20363951;28;20078;-84
2022/12/25 13:42:31;;;;;;;43.88;28.75;;;;;;;15.73;76.99;100640.25;20315727;29;20052;-85
2022/12/25 13:52:35;;;;;;;42.47;27.30;;;;;;;15.83;77.03;100636.81;20323125;29;20051;-83
2022/12/25 14:02:37;;;;;;;36.65;23.65;;;;;;;16.00;77.04;100664.94;20323187;29;20138;-84
2022/12/25 14:12:41;;;;;;;35.20;22.48;;;;;;;16.00;77.03;100657.75;20307789;29;20670;-86
2022/12/25 14:22:49;;;;;;;34.70;21.92;;;;;;;15.92;76.84;100644.13;20315585;28;20054;-86
2022/12/25 14:32:52;;;;;;;29.88;20.15;;;;;;;15.99;77.04;100653.38;20344356;29;20046;-84
2022/12/25 14:43:20;;;;;;;29.00;19.35;;;;;;;15.94;76.96;100642.19;20317752;29;20537;-85
2022/12/25 14:53:24;;;;;;;27.20;18.02;;;;;;;15.98;76.85;100632.00;20304400;29;20453;-85
2022/12/25 15:03:27;;;;;;;26.67;16.20;;;;;;;15.33;76.99;100541.66;20299227;29;20088;-87
2022/12/25 15:13:29;;;;;;;21.10;15.32;;;;;;;15.99;77.10;100622.97;20368496;29;20055;-93
2022/12/25 15:23:31;;;;;;;21.77;14.77;;;;;;;15.97;76.88;100609.69;20365978;29;20051;-91
2022/12/25 15:33:32;;;;;;;21.25;14.43;;;;;;;15.98;77.22;100618.59;20296828;29;20108;-85
2022/12/25 15:43:34;;;;;;;19.52;13.68;;;;;;;15.98;77.34;100614.09;20323404;28;20058;-88
2022/12/25 15:53:42;;;;;;;17.20;12.07;;;;;;;15.98;77.60;100602.47;20302286;29;20139;-86
2022/12/25 16:03:44;;;;;;;17.55;11.45;;;;;;;15.88;77.58;100592.53;20329136;28;20072;-88
2022/12/25 16:13:46;;;;;;;16.00;11.07;;;;;;;15.99;77.72;100613.09;20322603;29;20683;-87
2022/12/25 16:23:47;;;;;;;15.43;10.65;;;;;;;15.91;77.90;100599.47;20303168;28;20047;-86
2022/12/25 16:33:49;;;;;;;13.65;9.23;;;;;;;15.73;78.06;100586.59;20324116;29;20052;-85
2022/12/25 16:43:50;;;;;;;12.02;9.07;;;;;;;15.98;78.16;100615.91;20303964;28;20063;-86
2022/12/25 16:53:53;;;;;;;12.85;8.73;;;;;;;15.99;78.44;100602.34;20315374;29;20051;-86
2022/12/25 17:03:57;;;;;;;12.73;8.48;;;;;;;16.00;79.01;100582.59;20311095;29;20067;-85
2022/12/25 17:14:02;;;;;;;10.63;7.50;;;;;;;16.02;81.23;100580.63;20324653;28;20044;-85
2022/12/25 17:24:04;;;;;;;9.63;7.00;;;;;;;16.06;81.38;100576.69;20288337;29;20055;-85
2022/12/25 17:34:07;;;;;;;12.35;8.05;;;;;;;16.08;81.35;100558.59;20297091;28;20413;-82
2022/12/25 17:44:09;;;;;;;14.07;8.32;;;;;;;16.05;81.79;100529.31;20288408;29;20071;-86
2022/12/25 17:54:11;;;;;;;13.73;9.13;;;;;;;15.95;81.93;100523.06;20312785;28;20052;-84
2022/12/25 18:04:12;;;;;;;12.35;8.18;;;;;;;16.04;82.16;100518.72;20307067;28;21055;-81
2022/12/25 18:14:15;;;;;;;13.48;8.05;;;;;;;16.13;82.43;100549.28;20346531;28;20199;-83
2022/12/25 18:24:16;;;;;;;11.80;8.25;;;;;;;15.93;82.18;100525.88;20314058;29;20271;-80
2022/12/25 18:34:18;;;;;;;10.65;7.95;;;;;;;15.89;82.47;100518.19;20323400;28;20060;-81
2022/12/25 18:44:19;;;;;;;10.27;9.05;;;;;;;16.15;82.78;100547.31;20363251;29;20070;-81
2022/12/25 18:54:21;;;;;;;13.18;10.20;;;;;;;16.14;82.39;100541.13;20378745;28;20182;-84
2022/12/25 19:04:23;;;;;;;14.65;10.63;;;;;;;16.15;82.00;100533.91;20364308;28;20059;-81
2022/12/25 19:14:27;;;;;;;13.85;10.48;;;;;;;16.15;81.76;100521.34;20363446;28;20509;-82
2022/12/25 19:24:28;;;;;;;9.93;8.82;;;;;;;16.15;81.36;100521.34;20322303;28;20056;-81
2022/12/25 19:34:30;;;;;;;9.20;8.20;;;;;;;16.16;81.13;100543.66;20302868;28;20079;-81
2022/12/25 19:44:31;;;;;;;8.85;7.28;;;;;;;16.17;80.74;100539.97;20331307;28;20063;-84
2022/12/25 19:54:33;;;;;;;12.65;9.48;;;;;;;16.06;80.92;100530.16;20311273;29;20060;-84
2022/12/25 20:04:34;;;;;;;13.35;10.18;;;;;;;16.16;80.63;100538.28;20344493;29;20055;-82
2022/12/25 20:14:36;;;;;;;16.20;10.43;;;;;;;15.88;80.35;100486.97;20390497;29;20059;-82
2022/12/25 20:24:37;;;;;;;12.02;9.38;;;;;;;16.15;79.98;100533.91;20387904;29;20580;-82
2022/12/25 20:34:39;;;;;;;10.77;8.13;;;;;;;16.03;79.78;100528.63;20371450;29;20051;-82
2022/12/25 20:44:40;;;;;;;12.68;7.90;;;;;;;15.91;79.64;100517.09;20386727;29;20130;-82
2022/12/25 20:54:42;;;;;;;12.52;7.88;;;;;;;16.05;79.43;100537.38;20368871;29;20063;-82
2022/12/25 21:04:43;;;;;;;9.68;7.57;;;;;;;16.11;79.15;100545.88;20389493;29;20055;-82
2022/12/25 21:14:54;;;;;;;10.52;6.90;;;;;;;16.10;79.07;100553.06;20390835;29;20085;-82
2022/12/25 21:24:55;;;;;;;10.25;6.78;;;;;;;16.10;78.67;100550.38;20373194;29;20051;-83
2022/12/25 21:34:57;;;;;;;10.52;6.10;;;;;;;16.08;78.61;100553.22;20373219;29;20548;-82
2022/12/25 21:44:58;;;;;;;7.85;6.28;;;;;;;16.08;78.39;100542.47;20400463;29;20107;-83
2022/12/25 21:55:00;;;;;;;7.03;5.45;;;;;;;16.08;78.03;100560.41;20419695;28;20666;-83
2022/12/25 22:05:02;;;;;;;6.72;5.60;;;;;;;16.08;78.18;100552.38;20429169;28;20051;-83
2022/12/25 22:15:06;;;;;;;7.50;5.60;;;;;;;16.06;78.13;100557.88;20403429;29;20098;-82
2022/12/25 22:25:09;;;;;;;5.88;4.95;;;;;;;16.07;77.79;100582.88;20402718;29;20393;-82
2022/12/25 22:35:11;;;;;;;6.30;4.78;;;;;;;16.07;77.61;100566.78;20384694;29;20045;-82
2022/12/25 22:45:13;;;;;;;5.18;4.10;;;;;;;15.77;77.53;100523.63;20384049;29;20056;-83
2022/12/25 22:55:17;;;;;;;4.88;4.10;;;;;;;16.06;77.48;100586.56;20399949;29;20051;-82
2022/12/25 23:05:18;;;;;;;5.05;3.63;;;;;;;15.85;77.22;100546.25;20367138;29;20492;-82
2022/12/25 23:15:20;;;;;;;4.10;3.42;;;;;;;15.95;77.23;100566.03;20381955;29;20075;-82
2022/12/25 23:35:41;;;;;;;4.53;3.33;;;;;;;16.05;77.19;100574.13;20345545;28;20115;-83
2022/12/25 23:45:43;;;;;;;3.60;3.20;;;;;;;16.04;77.13;100573.28;20301401;29;20386;-82
2022/12/25 23:55:44;;;;;;;4.50;3.90;;;;;;;16.03;77.04;100544.72;20331068;29;20056;-83
